sensor_id;sensor_type;location;lat;lon;timestamp;P1;durP1;ratioP1;P2;durP2;ratioP2
64842;SDS011;51310;52.198;5.422;2022-11-15T00:00:54;48.95;;;20.98;;
64842;SDS011;51310;52.198;5.422;2022-11-15T00:03:22;45.55;;;21.65;;
64842;SDS011;51310;52.198;5.422;2022-11-15T00:05:51;45.05;;;21.40;;
64842;SDS011;51310;52.198;5.422;2022-11-15T00:08:18;44.67;;;21.23;;
64842;SDS011;51310;52.198;5.422;2022-11-15T00:10:53;50.10;;;20.05;;
64842;SDS011;51310;52.198;5.422;2022-11-15T00:13:21;41.42;;;20.67;;
64842;SDS011;51310;52.198;5.422;2022-11-15T00:15:47;45.65;;;21.20;;
64842;SDS011;51310;52.198;5.422;2022-11-15T00:18:13;48.05;;;21.17;;
64842;SDS011;51310;52.198;5.422;2022-11-15T00:20:40;46.47;;;20.83;;
64842;SDS011;51310;52.198;5.422;2022-11-15T00:23:07;52.05;;;20.85;;
64842;SDS011;51310;52.198;5.422;2022-11-15T00:25:33;46.05;;;20.60;;
64842;SDS011;51310;52.198;5.422;2022-11-15T00:27:59;45.80;;;20.70;;
64842;SDS011;51310;52.198;5.422;2022-11-15T00:30:27;42.83;;;20.08;;
64842;SDS011;51310;52.198;5.422;2022-11-15T00:32:53;49.78;;;20.65;;
64842;SDS011;51310;52.198;5.422;2022-11-15T00:35:20;46.78;;;21.05;;
64842;SDS011;51310;52.198;5.422;2022-11-15T00:37:47;52.45;;;22.45;;
64842;SDS011;51310;52.198;5.422;2022-11-15T00:40:13;49.22;;;23.35;;
64842;SDS011;51310;52.198;5.422;2022-11-15T00:42:40;56.92;;;23.70;;
64842;SDS011;51310;52.198;5.422;2022-11-15T00:45:06;62.38;;;24.00;;
64842;SDS011;51310;52.198;5.422;2022-11-15T00:47:34;59.40;;;23.52;;
64842;SDS011;51310;52.198;5.422;2022-11-15T00:50:00;65.27;;;24.70;;
64842;SDS011;51310;52.198;5.422;2022-11-15T00:52:25;64.87;;;25.93;;
64842;SDS011;51310;52.198;5.422;2022-11-15T00:54:51;65.45;;;24.90;;
64842;SDS011;51310;52.198;5.422;2022-11-15T00:57:17;69.38;;;26.42;;
64842;SDS011;51310;52.198;5.422;2022-11-15T00:59:43;67.43;;;25.58;;
64842;SDS011;51310;52.198;5.422;2022-11-15T01:02:09;68.97;;;26.27;;
64842;SDS011;51310;52.198;5.422;2022-11-15T01:04:35;71.78;;;27.00;;
64842;SDS011;51310;52.198;5.422;2022-11-15T01:07:00;71.15;;;26.15;;
64842;SDS011;51310;52.198;5.422;2022-11-15T01:09:26;79.67;;;27.27;;
64842;SDS011;51310;52.198;5.422;2022-11-15T01:11:52;83.80;;;28.40;;
64842;SDS011;51310;52.198;5.422;2022-11-15T01:14:18;80.20;;;27.67;;
64842;SDS011;51310;52.198;5.422;2022-11-15T01:16:44;75.85;;;26.88;;
64842;SDS011;51310;52.198;5.422;2022-11-15T01:19:10;80.60;;;28.42;;
64842;SDS011;51310;52.198;5.422;2022-11-15T01:21:36;89.20;;;29.85;;
64842;SDS011;51310;52.198;5.422;2022-11-15T01:24:02;79.27;;;28.00;;
64842;SDS011;51310;52.198;5.422;2022-11-15T01:26:28;79.00;;;28.63;;
64842;SDS011;51310;52.198;5.422;2022-11-15T01:28:53;87.50;;;28.85;;
64842;SDS011;51310;52.198;5.422;2022-11-15T01:31:20;71.53;;;27.27;;
64842;SDS011;51310;52.198;5.422;2022-11-15T01:33:47;80.47;;;27.65;;
64842;SDS011;51310;52.198;5.422;2022-11-15T01:36:18;76.53;;;27.07;;
64842;SDS011;51310;52.198;5.422;2022-11-15T01:38:52;79.13;;;29.13;;
64842;SDS011;51310;52.198;5.422;2022-11-15T01:41:21;77.53;;;28.77;;
64842;SDS011;51310;52.198;5.422;2022-11-15T01:46:59;76.30;;;27.27;;
64842;SDS011;51310;52.198;5.422;2022-11-15T01:49:32;80.20;;;28.27;;
64842;SDS011;51310;52.198;5.422;2022-11-15T01:52:03;71.30;;;27.90;;
64842;SDS011;51310;52.198;5.422;2022-11-15T01:54:35;77.03;;;27.90;;
64842;SDS011;51310;52.198;5.422;2022-11-15T01:57:02;77.85;;;27.75;;
64842;SDS011;51310;52.198;5.422;2022-11-15T01:59:34;75.00;;;28.83;;
64842;SDS011;51310;52.198;5.422;2022-11-15T02:02:08;79.03;;;28.73;;
64842;SDS011;51310;52.198;5.422;2022-11-15T02:04:40;70.07;;;27.20;;
64842;SDS011;51310;52.198;5.422;2022-11-15T02:07:10;72.43;;;26.98;;
64842;SDS011;51310;52.198;5.422;2022-11-15T02:09:42;76.35;;;28.02;;
64842;SDS011;51310;52.198;5.422;2022-11-15T02:12:10;67.10;;;26.15;;
64842;SDS011;51310;52.198;5.422;2022-11-15T02:14:44;66.75;;;25.73;;
64842;SDS011;51310;52.198;5.422;2022-11-15T02:17:41;73.33;;;26.70;;
64842;SDS011;51310;52.198;5.422;2022-11-15T02:21:07;68.05;;;26.85;;
64842;SDS011;51310;52.198;5.422;2022-11-15T02:23:57;64.53;;;26.80;;
64842;SDS011;51310;52.198;5.422;2022-11-15T02:30:00;71.05;;;27.58;;
64842;SDS011;51310;52.198;5.422;2022-11-15T02:32:49;66.25;;;27.50;;
64842;SDS011;51310;52.198;5.422;2022-11-15T02:36:20;64.32;;;26.42;;
64842;SDS011;51310;52.198;5.422;2022-11-15T02:38:34;70.93;;;27.93;;
64842;SDS011;51310;52.198;5.422;2022-11-15T02:41:24;63.45;;;28.02;;
64842;SDS011;51310;52.198;5.422;2022-11-15T02:44:17;62.63;;;27.40;;
64842;SDS011;51310;52.198;5.422;2022-11-15T02:47:06;64.20;;;26.60;;
64842;SDS011;51310;52.198;5.422;2022-11-15T02:49:39;64.63;;;26.55;;
64842;SDS011;51310;52.198;5.422;2022-11-15T02:52:16;61.58;;;26.00;;
64842;SDS011;51310;52.198;5.422;2022-11-15T02:54:55;66.88;;;26.55;;
64842;SDS011;51310;52.198;5.422;2022-11-15T03:00:45;66.32;;;27.90;;
64842;SDS011;51310;52.198;5.422;2022-11-15T03:06:35;58.42;;;27.27;;
64842;SDS011;51310;52.198;5.422;2022-11-15T03:09:50;49.67;;;24.40;;
64842;SDS011;51310;52.198;5.422;2022-11-15T03:12:36;65.32;;;25.65;;
64842;SDS011;51310;52.198;5.422;2022-11-15T03:15:21;59.33;;;26.47;;
64842;SDS011;51310;52.198;5.422;2022-11-15T03:20:30;66.95;;;27.30;;
64842;SDS011;51310;52.198;5.422;2022-11-15T03:23:00;54.65;;;26.02;;
64842;SDS011;51310;52.198;5.422;2022-11-15T03:25:34;54.58;;;25.35;;
64842;SDS011;51310;52.198;5.422;2022-11-15T03:28:10;53.80;;;25.23;;
64842;SDS011;51310;52.198;5.422;2022-11-15T03:30:54;56.60;;;25.30;;
64842;SDS011;51310;52.198;5.422;2022-11-15T03:33:21;54.58;;;24.92;;
64842;SDS011;51310;52.198;5.422;2022-11-15T03:35:47;53.42;;;24.50;;
64842;SDS011;51310;52.198;5.422;2022-11-15T03:38:20;52.30;;;25.58;;
64842;SDS011;51310;52.198;5.422;2022-11-15T03:40:58;50.38;;;24.98;;
64842;SDS011;51310;52.198;5.422;2022-11-15T03:46:14;53.85;;;23.45;;
64842;SDS011;51310;52.198;5.422;2022-11-15T03:49:08;52.45;;;24.33;;
64842;SDS011;51310;52.198;5.422;2022-11-15T03:51:49;51.40;;;23.20;;
64842;SDS011;51310;52.198;5.422;2022-11-15T03:54:15;50.80;;;24.45;;
64842;SDS011;51310;52.198;5.422;2022-11-15T03:56:41;53.53;;;24.43;;
64842;SDS011;51310;52.198;5.422;2022-11-15T03:59:07;52.92;;;24.27;;
64842;SDS011;51310;52.198;5.422;2022-11-15T04:01:33;50.85;;;23.88;;
64842;SDS011;51310;52.198;5.422;2022-11-15T04:03:59;53.03;;;24.77;;
64842;SDS011;51310;52.198;5.422;2022-11-15T04:06:25;52.40;;;25.40;;
64842;SDS011;51310;52.198;5.422;2022-11-15T04:08:50;50.53;;;24.25;;
64842;SDS011;51310;52.198;5.422;2022-11-15T04:11:16;67.28;;;26.48;;
64842;SDS011;51310;52.198;5.422;2022-11-15T04:13:42;47.83;;;24.67;;
64842;SDS011;51310;52.198;5.422;2022-11-15T04:16:08;51.50;;;25.23;;
64842;SDS011;51310;52.198;5.422;2022-11-15T04:18:34;49.53;;;24.20;;
64842;SDS011;51310;52.198;5.422;2022-11-15T04:20:59;52.17;;;23.50;;
64842;SDS011;51310;52.198;5.422;2022-11-15T04:23:44;42.28;;;21.80;;
64842;SDS011;51310;52.198;5.422;2022-11-15T04:26:30;46.33;;;22.52;;
64842;SDS011;51310;52.198;5.422;2022-11-15T04:28:56;49.45;;;23.77;;
64842;SDS011;51310;52.198;5.422;2022-11-15T04:31:41;42.45;;;22.55;;
64842;SDS011;51310;52.198;5.422;2022-11-15T04:34:06;43.88;;;22.65;;
64842;SDS011;51310;52.198;5.422;2022-11-15T04:36:32;45.47;;;22.67;;
64842;SDS011;51310;52.198;5.422;2022-11-15T04:39:17;53.33;;;23.20;;
64842;SDS011;51310;52.198;5.422;2022-11-15T04:41:43;50.33;;;23.73;;
64842;SDS011;51310;52.198;5.422;2022-11-15T04:44:09;43.65;;;22.77;;
64842;SDS011;51310;52.198;5.422;2022-11-15T04:46:34;47.85;;;22.75;;
64842;SDS011;51310;52.198;5.422;2022-11-15T04:49:00;40.53;;;22.00;;
64842;SDS011;51310;52.198;5.422;2022-11-15T04:51:26;46.43;;;21.90;;
64842;SDS011;51310;52.198;5.422;2022-11-15T04:53:52;41.05;;;22.08;;
64842;SDS011;51310;52.198;5.422;2022-11-15T04:56:18;49.22;;;23.52;;
64842;SDS011;51310;52.198;5.422;2022-11-15T04:58:44;41.65;;;22.38;;
64842;SDS011;51310;52.198;5.422;2022-11-15T05:01:10;50.63;;;23.63;;
64842;SDS011;51310;52.198;5.422;2022-11-15T05:03:40;46.78;;;23.58;;
64842;SDS011;51310;52.198;5.422;2022-11-15T05:06:27;44.17;;;23.10;;
64842;SDS011;51310;52.198;5.422;2022-11-15T05:08:54;48.42;;;23.88;;
64842;SDS011;51310;52.198;5.422;2022-11-15T05:11:22;43.10;;;23.75;;
64842;SDS011;51310;52.198;5.422;2022-11-15T05:13:48;44.45;;;22.15;;
64842;SDS011;51310;52.198;5.422;2022-11-15T05:16:15;39.90;;;22.43;;
64842;SDS011;51310;52.198;5.422;2022-11-15T05:18:41;38.08;;;21.08;;
64842;SDS011;51310;52.198;5.422;2022-11-15T05:21:08;47.05;;;22.85;;
64842;SDS011;51310;52.198;5.422;2022-11-15T05:23:38;49.28;;;22.98;;
64842;SDS011;51310;52.198;5.422;2022-11-15T05:26:06;43.33;;;21.90;;
64842;SDS011;51310;52.198;5.422;2022-11-15T05:28:33;42.50;;;21.97;;
64842;SDS011;51310;52.198;5.422;2022-11-15T05:31:05;41.03;;;22.45;;
64842;SDS011;51310;52.198;5.422;2022-11-15T05:33:38;41.87;;;21.63;;
64842;SDS011;51310;52.198;5.422;2022-11-15T05:36:49;46.88;;;23.48;;
64842;SDS011;51310;52.198;5.422;2022-11-15T05:39:09;43.67;;;21.92;;
64842;SDS011;51310;52.198;5.422;2022-11-15T05:41:38;46.33;;;21.88;;
64842;SDS011;51310;52.198;5.422;2022-11-15T05:44:13;40.63;;;21.95;;
64842;SDS011;51310;52.198;5.422;2022-11-15T05:46:43;42.53;;;21.40;;
64842;SDS011;51310;52.198;5.422;2022-11-15T05:49:11;45.95;;;22.30;;
64842;SDS011;51310;52.198;5.422;2022-11-15T05:51:45;44.10;;;23.15;;
64842;SDS011;51310;52.198;5.422;2022-11-15T05:54:14;42.72;;;21.38;;
64842;SDS011;51310;52.198;5.422;2022-11-15T05:56:41;46.63;;;22.85;;
64842;SDS011;51310;52.198;5.422;2022-11-15T05:59:08;41.45;;;23.52;;
64842;SDS011;51310;52.198;5.422;2022-11-15T06:01:35;41.97;;;20.80;;
64842;SDS011;51310;52.198;5.422;2022-11-15T06:04:02;42.80;;;22.03;;
64842;SDS011;51310;52.198;5.422;2022-11-15T06:06:28;46.67;;;22.95;;
64842;SDS011;51310;52.198;5.422;2022-11-15T06:08:54;46.80;;;22.05;;
64842;SDS011;51310;52.198;5.422;2022-11-15T06:11:20;42.00;;;22.23;;
64842;SDS011;51310;52.198;5.422;2022-11-15T06:13:46;38.28;;;21.40;;
64842;SDS011;51310;52.198;5.422;2022-11-15T06:16:12;38.23;;;21.97;;
64842;SDS011;51310;52.198;5.422;2022-11-15T06:18:38;41.67;;;20.47;;
64842;SDS011;51310;52.198;5.422;2022-11-15T06:21:04;40.90;;;21.08;;
64842;SDS011;51310;52.198;5.422;2022-11-15T06:23:31;35.33;;;20.23;;
64842;SDS011;51310;52.198;5.422;2022-11-15T06:26:00;40.25;;;21.98;;
64842;SDS011;51310;52.198;5.422;2022-11-15T06:28:28;37.00;;;21.10;;
64842;SDS011;51310;52.198;5.422;2022-11-15T06:30:56;41.67;;;20.40;;
64842;SDS011;51310;52.198;5.422;2022-11-15T06:33:28;40.92;;;21.50;;
64842;SDS011;51310;52.198;5.422;2022-11-15T06:35:54;38.00;;;21.13;;
64842;SDS011;51310;52.198;5.422;2022-11-15T06:38:20;40.63;;;20.73;;
64842;SDS011;51310;52.198;5.422;2022-11-15T06:40:46;37.05;;;20.52;;
64842;SDS011;51310;52.198;5.422;2022-11-15T06:43:12;36.65;;;20.83;;
64842;SDS011;51310;52.198;5.422;2022-11-15T06:45:39;43.30;;;21.57;;
64842;SDS011;51310;52.198;5.422;2022-11-15T06:48:05;44.27;;;22.33;;
64842;SDS011;51310;52.198;5.422;2022-11-15T06:50:31;38.45;;;22.13;;
64842;SDS011;51310;52.198;5.422;2022-11-15T06:53:00;43.10;;;22.42;;
64842;SDS011;51310;52.198;5.422;2022-11-15T06:55:28;38.00;;;20.97;;
64842;SDS011;51310;52.198;5.422;2022-11-15T06:57:54;36.05;;;20.50;;
64842;SDS011;51310;52.198;5.422;2022-11-15T07:00:21;39.05;;;20.00;;
64842;SDS011;51310;52.198;5.422;2022-11-15T07:02:47;41.33;;;21.40;;
64842;SDS011;51310;52.198;5.422;2022-11-15T07:05:14;34.00;;;21.10;;
64842;SDS011;51310;52.198;5.422;2022-11-15T07:07:41;38.05;;;21.08;;
64842;SDS011;51310;52.198;5.422;2022-11-15T07:10:07;44.30;;;22.93;;
64842;SDS011;51310;52.198;5.422;2022-11-15T07:12:33;42.53;;;23.08;;
64842;SDS011;51310;52.198;5.422;2022-11-15T07:14:59;42.65;;;22.90;;
64842;SDS011;51310;52.198;5.422;2022-11-15T07:17:25;39.92;;;20.85;;
64842;SDS011;51310;52.198;5.422;2022-11-15T07:19:51;36.55;;;21.27;;
64842;SDS011;51310;52.198;5.422;2022-11-15T07:22:17;38.10;;;21.33;;
64842;SDS011;51310;52.198;5.422;2022-11-15T07:24:43;38.67;;;21.45;;
64842;SDS011;51310;52.198;5.422;2022-11-15T07:27:08;39.75;;;21.48;;
64842;SDS011;51310;52.198;5.422;2022-11-15T07:29:34;35.57;;;20.53;;
64842;SDS011;51310;52.198;5.422;2022-11-15T07:32:00;41.47;;;20.40;;
64842;SDS011;51310;52.198;5.422;2022-11-15T07:34:26;37.17;;;21.33;;
64842;SDS011;51310;52.198;5.422;2022-11-15T07:36:52;40.87;;;21.37;;
64842;SDS011;51310;52.198;5.422;2022-11-15T07:39:18;39.58;;;20.80;;
64842;SDS011;51310;52.198;5.422;2022-11-15T07:41:43;39.60;;;21.02;;
64842;SDS011;51310;52.198;5.422;2022-11-15T07:44:09;40.55;;;21.73;;
64842;SDS011;51310;52.198;5.422;2022-11-15T07:46:35;36.85;;;20.30;;
64842;SDS011;51310;52.198;5.422;2022-11-15T07:49:01;41.70;;;20.48;;
64842;SDS011;51310;52.198;5.422;2022-11-15T07:51:27;37.97;;;19.42;;
64842;SDS011;51310;52.198;5.422;2022-11-15T07:53:53;36.00;;;20.70;;
64842;SDS011;51310;52.198;5.422;2022-11-15T07:56:18;38.30;;;19.93;;
64842;SDS011;51310;52.198;5.422;2022-11-15T07:58:45;41.58;;;20.38;;
64842;SDS011;51310;52.198;5.422;2022-11-15T08:01:11;36.03;;;18.27;;
64842;SDS011;51310;52.198;5.422;2022-11-15T08:03:38;35.72;;;19.48;;
64842;SDS011;51310;52.198;5.422;2022-11-15T08:06:04;32.90;;;19.87;;
64842;SDS011;51310;52.198;5.422;2022-11-15T08:08:30;38.38;;;19.10;;
64842;SDS011;51310;52.198;5.422;2022-11-15T08:11:00;34.95;;;18.45;;
64842;SDS011;51310;52.198;5.422;2022-11-15T08:13:26;30.67;;;18.55;;
64842;SDS011;51310;52.198;5.422;2022-11-15T08:15:56;31.55;;;18.20;;
64842;SDS011;51310;52.198;5.422;2022-11-15T08:18:27;32.45;;;18.50;;
64842;SDS011;51310;52.198;5.422;2022-11-15T08:20:52;31.08;;;17.75;;
64842;SDS011;51310;52.198;5.422;2022-11-15T08:23:18;32.38;;;17.77;;
64842;SDS011;51310;52.198;5.422;2022-11-15T08:25:44;34.25;;;17.15;;
64842;SDS011;51310;52.198;5.422;2022-11-15T08:28:10;34.40;;;16.90;;
64842;SDS011;51310;52.198;5.422;2022-11-15T08:30:37;36.50;;;17.13;;
64842;SDS011;51310;52.198;5.422;2022-11-15T08:33:09;34.53;;;17.58;;
64842;SDS011;51310;52.198;5.422;2022-11-15T08:35:38;26.83;;;16.42;;
64842;SDS011;51310;52.198;5.422;2022-11-15T08:38:06;32.40;;;16.75;;
64842;SDS011;51310;52.198;5.422;2022-11-15T08:40:32;25.95;;;16.42;;
64842;SDS011;51310;52.198;5.422;2022-11-15T08:42:58;30.52;;;16.42;;
64842;SDS011;51310;52.198;5.422;2022-11-15T08:45:27;35.65;;;15.90;;
64842;SDS011;51310;52.198;5.422;2022-11-15T08:47:54;30.33;;;16.30;;
64842;SDS011;51310;52.198;5.422;2022-11-15T08:50:21;28.95;;;15.38;;
64842;SDS011;51310;52.198;5.422;2022-11-15T08:52:47;24.88;;;14.98;;
64842;SDS011;51310;52.198;5.422;2022-11-15T08:55:13;26.77;;;15.55;;
64842;SDS011;51310;52.198;5.422;2022-11-15T08:57:39;27.92;;;15.07;;
64842;SDS011;51310;52.198;5.422;2022-11-15T09:00:05;23.30;;;15.10;;
64842;SDS011;51310;52.198;5.422;2022-11-15T09:02:32;27.73;;;15.80;;
64842;SDS011;51310;52.198;5.422;2022-11-15T09:04:58;26.43;;;15.80;;
64842;SDS011;51310;52.198;5.422;2022-11-15T09:07:24;29.60;;;16.47;;
64842;SDS011;51310;52.198;5.422;2022-11-15T09:09:50;30.40;;;15.30;;
64842;SDS011;51310;52.198;5.422;2022-11-15T09:12:15;32.10;;;15.32;;
64842;SDS011;51310;52.198;5.422;2022-11-15T09:14:42;24.33;;;15.00;;
64842;SDS011;51310;52.198;5.422;2022-11-15T09:17:08;23.57;;;13.57;;
64842;SDS011;51310;52.198;5.422;2022-11-15T09:19:34;24.92;;;13.80;;
64842;SDS011;51310;52.198;5.422;2022-11-15T09:22:01;26.33;;;14.43;;
64842;SDS011;51310;52.198;5.422;2022-11-15T09:24:31;22.48;;;13.98;;
64842;SDS011;51310;52.198;5.422;2022-11-15T09:26:57;20.58;;;14.27;;
64842;SDS011;51310;52.198;5.422;2022-11-15T09:29:23;22.80;;;14.05;;
64842;SDS011;51310;52.198;5.422;2022-11-15T09:31:51;24.33;;;14.03;;
64842;SDS011;51310;52.198;5.422;2022-11-15T09:34:18;19.25;;;12.77;;
64842;SDS011;51310;52.198;5.422;2022-11-15T09:36:44;27.02;;;12.80;;
64842;SDS011;51310;52.198;5.422;2022-11-15T09:39:10;22.80;;;13.30;;
64842;SDS011;51310;52.198;5.422;2022-11-15T09:44:42;22.88;;;10.60;;
64842;SDS011;51310;52.198;5.422;2022-11-15T09:47:47;16.30;;;10.23;;
64842;SDS011;51310;52.198;5.422;2022-11-15T09:50:50;17.67;;;11.20;;
64842;SDS011;51310;52.198;5.422;2022-11-15T09:53:29;18.83;;;9.93;;
64842;SDS011;51310;52.198;5.422;2022-11-15T09:56:13;17.63;;;9.07;;
64842;SDS011;51310;52.198;5.422;2022-11-15T10:04:32;13.30;;;8.60;;
64842;SDS011;51310;52.198;5.422;2022-11-15T10:07:06;14.67;;;8.30;;
64842;SDS011;51310;52.198;5.422;2022-11-15T10:12:27;12.38;;;7.93;;
64842;SDS011;51310;52.198;5.422;2022-11-15T10:14:57;16.13;;;8.10;;
64842;SDS011;51310;52.198;5.422;2022-11-15T10:20:34;14.25;;;7.68;;
64842;SDS011;51310;52.198;5.422;2022-11-15T10:23:22;12.65;;;7.47;;
64842;SDS011;51310;52.198;5.422;2022-11-15T10:25:55;10.87;;;7.77;;
64842;SDS011;51310;52.198;5.422;2022-11-15T10:28:28;12.05;;;7.20;;
64842;SDS011;51310;52.198;5.422;2022-11-15T10:30:56;12.60;;;7.80;;
64842;SDS011;51310;52.198;5.422;2022-11-15T10:41:20;10.55;;;4.50;;
64842;SDS011;51310;52.198;5.422;2022-11-15T10:44:02;6.78;;;3.88;;
64842;SDS011;51310;52.198;5.422;2022-11-15T10:46:45;9.57;;;4.50;;
64842;SDS011;51310;52.198;5.422;2022-11-15T10:49:24;7.15;;;3.78;;
64842;SDS011;51310;52.198;5.422;2022-11-15T10:57:15;7.25;;;4.22;;
64842;SDS011;51310;52.198;5.422;2022-11-15T10:59:49;7.63;;;4.30;;
64842;SDS011;51310;52.198;5.422;2022-11-15T11:05:32;10.88;;;3.75;;
64842;SDS011;51310;52.198;5.422;2022-11-15T11:08:09;5.70;;;3.38;;
64842;SDS011;51310;52.198;5.422;2022-11-15T11:10:53;8.00;;;3.45;;
64842;SDS011;51310;52.198;5.422;2022-11-15T11:13:23;5.53;;;3.42;;
64842;SDS011;51310;52.198;5.422;2022-11-15T11:22:01;8.77;;;3.20;;
64842;SDS011;51310;52.198;5.422;2022-11-15T11:24:53;5.68;;;3.10;;
64842;SDS011;51310;52.198;5.422;2022-11-15T11:30:57;5.90;;;3.22;;
64842;SDS011;51310;52.198;5.422;2022-11-15T11:34:16;3.47;;;2.28;;
64842;SDS011;51310;52.198;5.422;2022-11-15T11:39:58;6.38;;;2.60;;
64842;SDS011;51310;52.198;5.422;2022-11-15T11:43:16;7.70;;;3.38;;
64842;SDS011;51310;52.198;5.422;2022-11-15T11:49:06;4.85;;;2.95;;
64842;SDS011;51310;52.198;5.422;2022-11-15T11:51:45;9.07;;;2.95;;
64842;SDS011;51310;52.198;5.422;2022-11-15T11:54:47;5.68;;;2.60;;
64842;SDS011;51310;52.198;5.422;2022-11-15T11:57:53;5.75;;;2.38;;
64842;SDS011;51310;52.198;5.422;2022-11-15T12:01:11;10.63;;;2.92;;
64842;SDS011;51310;52.198;5.422;2022-11-15T12:03:58;7.85;;;2.72;;
64842;SDS011;51310;52.198;5.422;2022-11-15T12:06:38;7.05;;;2.78;;
64842;SDS011;51310;52.198;5.422;2022-11-15T12:09:26;6.07;;;2.50;;
64842;SDS011;51310;52.198;5.422;2022-11-15T12:15:20;5.40;;;2.80;;
64842;SDS011;51310;52.198;5.422;2022-11-15T12:17:54;6.57;;;2.40;;
64842;SDS011;51310;52.198;5.422;2022-11-15T12:20:26;6.43;;;2.80;;
64842;SDS011;51310;52.198;5.422;2022-11-15T12:23:01;6.18;;;1.95;;
64842;SDS011;51310;52.198;5.422;2022-11-15T12:36:47;5.32;;;2.25;;
64842;SDS011;51310;52.198;5.422;2022-11-15T12:39:16;5.63;;;1.70;;
64842;SDS011;51310;52.198;5.422;2022-11-15T12:41:44;3.73;;;1.30;;
64842;SDS011;51310;52.198;5.422;2022-11-15T13:02:37;6.22;;;1.48;;
64842;SDS011;51310;52.198;5.422;2022-11-15T13:22:59;5.03;;;2.13;;
64842;SDS011;51310;52.198;5.422;2022-11-15T13:30:39;4.90;;;1.97;;
64842;SDS011;51310;52.198;5.422;2022-11-15T13:33:21;5.53;;;1.80;;
64842;SDS011;51310;52.198;5.422;2022-11-15T13:35:59;6.05;;;2.05;;
64842;SDS011;51310;52.198;5.422;2022-11-15T13:38:33;3.05;;;1.70;;
64842;SDS011;51310;52.198;5.422;2022-11-15T13:41:18;7.80;;;2.20;;
64842;SDS011;51310;52.198;5.422;2022-11-15T13:43:49;6.35;;;2.05;;
64842;SDS011;51310;52.198;5.422;2022-11-15T13:49:00;12.40;;;2.15;;
64842;SDS011;51310;52.198;5.422;2022-11-15T13:59:31;6.95;;;2.03;;
64842;SDS011;51310;52.198;5.422;2022-11-15T14:02:15;6.20;;;1.52;;
64842;SDS011;51310;52.198;5.422;2022-11-15T14:04:51;5.82;;;1.75;;
64842;SDS011;51310;52.198;5.422;2022-11-15T14:07:22;4.47;;;1.53;;
64842;SDS011;51310;52.198;5.422;2022-11-15T14:09:52;10.00;;;2.42;;
64842;SDS011;51310;52.198;5.422;2022-11-15T14:12:22;7.10;;;1.87;;
64842;SDS011;51310;52.198;5.422;2022-11-15T14:15:00;8.15;;;2.00;;
64842;SDS011;51310;52.198;5.422;2022-11-15T14:17:56;8.18;;;2.22;;
64842;SDS011;51310;52.198;5.422;2022-11-15T14:20:26;5.10;;;1.42;;
64842;SDS011;51310;52.198;5.422;2022-11-15T14:22:58;4.37;;;1.50;;
64842;SDS011;51310;52.198;5.422;2022-11-15T14:25:51;5.05;;;2.10;;
64842;SDS011;51310;52.198;5.422;2022-11-15T14:30:48;6.10;;;1.90;;
64842;SDS011;51310;52.198;5.422;2022-11-15T14:35:49;4.32;;;1.70;;
64842;SDS011;51310;52.198;5.422;2022-11-15T14:38:17;6.13;;;1.92;;
64842;SDS011;51310;52.198;5.422;2022-11-15T14:40:44;5.82;;;1.73;;
64842;SDS011;51310;52.198;5.422;2022-11-15T14:43:10;5.57;;;1.48;;
64842;SDS011;51310;52.198;5.422;2022-11-15T14:45:37;6.15;;;1.95;;
64842;SDS011;51310;52.198;5.422;2022-11-15T14:48:04;4.03;;;1.65;;
64842;SDS011;51310;52.198;5.422;2022-11-15T14:50:30;5.70;;;1.70;;
64842;SDS011;51310;52.198;5.422;2022-11-15T14:52:59;5.53;;;2.28;;
64842;SDS011;51310;52.198;5.422;2022-11-15T14:55:29;5.50;;;2.10;;
64842;SDS011;51310;52.198;5.422;2022-11-15T14:58:04;4.10;;;1.60;;
64842;SDS011;51310;52.198;5.422;2022-11-15T15:00:33;5.05;;;1.50;;
64842;SDS011;51310;52.198;5.422;2022-11-15T15:03:01;6.95;;;2.00;;
64842;SDS011;51310;52.198;5.422;2022-11-15T15:05:32;4.95;;;1.92;;
64842;SDS011;51310;52.198;5.422;2022-11-15T15:08:07;4.07;;;1.65;;
64842;SDS011;51310;52.198;5.422;2022-11-15T15:10:42;4.55;;;1.40;;
64842;SDS011;51310;52.198;5.422;2022-11-15T15:13:14;4.63;;;1.67;;
64842;SDS011;51310;52.198;5.422;2022-11-15T15:15:49;4.10;;;1.80;;
64842;SDS011;51310;52.198;5.422;2022-11-15T15:18:17;2.70;;;1.42;;
64842;SDS011;51310;52.198;5.422;2022-11-15T15:20:44;4.60;;;1.85;;
64842;SDS011;51310;52.198;5.422;2022-11-15T15:23:24;4.75;;;1.63;;
64842;SDS011;51310;52.198;5.422;2022-11-15T15:25:54;4.43;;;1.50;;
64842;SDS011;51310;52.198;5.422;2022-11-15T15:28:20;3.70;;;1.25;;
64842;SDS011;51310;52.198;5.422;2022-11-15T15:30:45;3.60;;;1.30;;
64842;SDS011;51310;52.198;5.422;2022-11-15T15:33:11;2.70;;;1.30;;
64842;SDS011;51310;52.198;5.422;2022-11-15T15:35:37;5.23;;;1.30;;
64842;SDS011;51310;52.198;5.422;2022-11-15T15:38:03;4.23;;;1.00;;
64842;SDS011;51310;52.198;5.422;2022-11-15T15:40:30;3.42;;;1.50;;
64842;SDS011;51310;52.198;5.422;2022-11-15T15:42:58;4.25;;;2.00;;
64842;SDS011;51310;52.198;5.422;2022-11-15T15:45:24;3.50;;;1.77;;
64842;SDS011;51310;52.198;5.422;2022-11-15T15:47:52;4.27;;;1.40;;
64842;SDS011;51310;52.198;5.422;2022-11-15T15:52:58;4.35;;;1.83;;
64842;SDS011;51310;52.198;5.422;2022-11-15T15:55:27;6.10;;;2.45;;
64842;SDS011;51310;52.198;5.422;2022-11-15T15:57:54;7.07;;;2.35;;
64842;SDS011;51310;52.198;5.422;2022-11-15T16:00:20;5.63;;;1.70;;
64842;SDS011;51310;52.198;5.422;2022-11-15T16:02:49;3.92;;;1.70;;
64842;SDS011;51310;52.198;5.422;2022-11-15T16:05:16;4.37;;;1.70;;
64842;SDS011;51310;52.198;5.422;2022-11-15T16:07:43;5.03;;;1.75;;
64842;SDS011;51310;52.198;5.422;2022-11-15T16:10:18;2.65;;;1.48;;
64842;SDS011;51310;52.198;5.422;2022-11-15T16:12:55;5.00;;;1.55;;
64842;SDS011;51310;52.198;5.422;2022-11-15T16:15:23;4.47;;;1.50;;
64842;SDS011;51310;52.198;5.422;2022-11-15T16:17:56;3.90;;;1.33;;
64842;SDS011;51310;52.198;5.422;2022-11-15T16:20:41;4.22;;;1.48;;
64842;SDS011;51310;52.198;5.422;2022-11-15T16:23:13;4.43;;;1.30;;
64842;SDS011;51310;52.198;5.422;2022-11-15T16:25:49;5.35;;;1.50;;
64842;SDS011;51310;52.198;5.422;2022-11-15T16:30:59;4.97;;;1.70;;
64842;SDS011;51310;52.198;5.422;2022-11-15T16:33:33;9.73;;;2.17;;
64842;SDS011;51310;52.198;5.422;2022-11-15T16:36:00;5.75;;;1.92;;
64842;SDS011;51310;52.198;5.422;2022-11-15T16:38:26;4.93;;;1.90;;
64842;SDS011;51310;52.198;5.422;2022-11-15T16:40:52;4.13;;;1.60;;
64842;SDS011;51310;52.198;5.422;2022-11-15T16:43:18;5.45;;;1.58;;
64842;SDS011;51310;52.198;5.422;2022-11-15T16:45:44;4.80;;;1.67;;
64842;SDS011;51310;52.198;5.422;2022-11-15T16:48:23;3.50;;;1.97;;
64842;SDS011;51310;52.198;5.422;2022-11-15T16:50:55;3.60;;;1.58;;
64842;SDS011;51310;52.198;5.422;2022-11-15T16:53:23;4.07;;;2.03;;
64842;SDS011;51310;52.198;5.422;2022-11-15T16:55:51;3.70;;;1.88;;
64842;SDS011;51310;52.198;5.422;2022-11-15T16:58:19;6.03;;;2.15;;
64842;SDS011;51310;52.198;5.422;2022-11-15T17:00:48;5.50;;;2.10;;
64842;SDS011;51310;52.198;5.422;2022-11-15T17:03:17;7.75;;;2.15;;
64842;SDS011;51310;52.198;5.422;2022-11-15T17:05:43;8.00;;;1.80;;
64842;SDS011;51310;52.198;5.422;2022-11-15T17:08:09;6.05;;;2.00;;
64842;SDS011;51310;52.198;5.422;2022-11-15T17:10:37;3.17;;;1.67;;
64842;SDS011;51310;52.198;5.422;2022-11-15T17:13:11;6.53;;;1.85;;
64842;SDS011;51310;52.198;5.422;2022-11-15T17:15:38;9.73;;;2.30;;
64842;SDS011;51310;52.198;5.422;2022-11-15T17:18:04;6.90;;;1.80;;